Bridgeport, NE (69336)

7:14 PM MDT on July 26, 2016 (GMT -0600)
East Bayard | | Change Station

Elev 3789 ft 41.76 °N, 103.32 °W | Updated 12 minutes ago

Clear
Clear
84.4 °F
Feels Like 83 °F
N
11.4
Wind Variable Wind from SSE

Today
High -- | Low -- °F
--% Chance of Precip.
Yesterday
High -- | Low -- °F
Precip. -- in
Pressure 29.83 in
Visibility 10.0 miles
Clouds Clear
Heat Index 83 °F
Dew Point 55 °F
Humidity 37%
Rainfall 0.00 in
Snow Depth Not available.
5:41 AM 8:15 PM
Waning Gibbous, 49% visible
METAR KAIA 270053Z AUTO 15007KT 10SM CLR 28/18 A2997 RMK AO2 LTG DSNT W SLP101 T02780178
Pressure 29.83 in
Visibility 10.0 miles
Clouds Clear
Heat Index 83 °F
Dew Point 55 °F
Humidity 37%
Rainfall 0.00 in
Snow Depth Not available.
5:41 AM 8:15 PM
Waning Gibbous, 49% visible
METAR KAIA 270053Z AUTO 15007KT 10SM CLR 28/18 A2997 RMK AO2 LTG DSNT W SLP101 T02780178

10-Day Weather Forecast

Almanac

Astronomy

Jul. 26, 2016 Rise Set
Actual Time
Civil Twilight
Nautical Twilight
Astronomical Twilight
Moon
Length of Visible Light
Length of Day
Tomorrow will be .
, % of the Moon is Illuminated

Today's Extremes

State Highs State Lows

Community

WunderPhotos

Upload Photos

1,927,762 photos uploaded!

WunderBlog® & News

Nearby

Air Quality

  Air Quality AQ Index Pollutant
Not available.

Snow Depth

Station Depth Elevation

Earthquake Activity

City Distance Mag. Time & Date
Minimum magnitude displayed is 2.5.

Coastal Water Temperatures

Place Temperature

Stations

Nearby Weather Stations

Station Location Temp. Windchill Dew Point Humidity Wind Precip. Elev Updated Type
                   

Watches & Warnings

There are currently no watches in effect.